createdAt,value
2022-08-27T05:38:02.928Z,539
2022-08-27T05:43:21.391Z,538
2022-08-27T05:48:39.897Z,518
2022-08-27T05:53:58.629Z,527
2022-08-27T05:59:17.036Z,581
2022-08-27T06:04:36.961Z,681
2022-08-27T06:09:55.447Z,677
2022-08-27T06:15:13.898Z,612
2022-08-27T06:20:32.351Z,894
2022-08-27T06:25:51.123Z,598
2022-08-27T06:31:09.631Z,567
2022-08-27T06:36:27.566Z,555
2022-08-27T06:41:46.125Z,547
2022-08-27T06:47:04.295Z,555
2022-08-27T06:52:22.755Z,554
2022-08-27T06:57:41.189Z,613
2022-08-27T07:02:59.407Z,596
2022-08-27T07:08:17.620Z,558
2022-08-27T07:13:36.377Z,586
2022-08-27T07:18:55.005Z,608
2022-08-27T07:24:13.267Z,651
2022-08-27T07:29:32.415Z,624
2022-08-27T07:34:50.348Z,656
2022-08-27T07:40:08.645Z,665
2022-08-27T07:45:31.461Z,671
2022-08-27T07:50:49.965Z,680
2022-08-27T07:56:08.187Z,683
2022-08-27T08:01:26.934Z,684
2022-08-27T08:06:45.157Z,680
2022-08-27T08:12:03.623Z,672
2022-08-27T08:17:22.411Z,664
2022-08-27T08:22:40.837Z,658
2022-08-27T08:28:00.222Z,658
2022-08-27T08:33:18.810Z,653
2022-08-27T08:38:37.004Z,648
2022-08-27T08:43:55.516Z,644
2022-08-27T08:49:13.423Z,643
2022-08-27T08:54:36.767Z,641
2022-08-27T08:59:55.269Z,638
2022-08-27T09:05:13.450Z,635
2022-08-27T09:10:31.917Z,633
2022-08-27T09:15:50.405Z,632
2022-08-27T09:21:09.824Z,631
2022-08-27T09:26:28.162Z,633
2022-08-27T09:31:46.337Z,623
2022-08-27T09:37:04.831Z,622
2022-08-27T09:42:23.046Z,623
2022-08-27T09:47:41.814Z,623
2022-08-27T09:53:00.290Z,621
2022-08-27T09:58:19.060Z,620
2022-08-27T10:03:37.616Z,609
2022-08-27T10:08:56.198Z,604
2022-08-27T10:14:14.432Z,600
2022-08-27T10:19:32.321Z,599
2022-08-27T10:24:51.083Z,596
2022-08-27T10:30:09.846Z,601
2022-08-27T10:35:28.054Z,595
2022-08-27T10:40:47.455Z,594
2022-08-27T10:46:05.670Z,589
2022-08-27T10:51:24.440Z,587
2022-08-27T10:56:42.905Z,583
2022-08-27T11:02:01.690Z,584
2022-08-27T11:07:19.907Z,586
2022-08-27T11:12:38.413Z,580
2022-08-27T11:17:57.188Z,575
2022-08-27T11:23:15.689Z,574
2022-08-27T11:28:33.846Z,571
2022-08-27T11:33:52.340Z,571
2022-08-27T11:39:10.808Z,567
2022-08-27T11:44:29.309Z,565
2022-08-27T11:49:47.479Z,567
2022-08-27T11:55:06.236Z,567
2022-08-27T12:00:24.705Z,562
2022-08-27T12:05:43.467Z,561
2022-08-27T12:11:01.651Z,558
2022-08-27T12:16:21.901Z,560
2022-08-27T12:21:40.538Z,558
2022-08-27T12:26:59.041Z,554
2022-08-27T12:32:17.485Z,552
2022-08-27T12:37:36.013Z,554
2022-08-27T12:42:56.043Z,556
2022-08-27T12:48:13.936Z,553
2022-08-27T12:53:32.143Z,548
2022-08-27T12:58:50.345Z,551
2022-08-27T13:04:08.570Z,547
2022-08-27T13:09:26.752Z,541
2022-08-27T13:14:45.844Z,540
2022-08-27T13:20:14.933Z,536
2022-08-27T13:25:33.697Z,538
2022-08-27T13:30:52.456Z,537
2022-08-27T13:36:11.238Z,533
2022-08-27T13:41:29.736Z,532
2022-08-27T13:46:48.511Z,530
2022-08-27T13:52:07.081Z,529
2022-08-27T13:57:25.522Z,532
2022-08-27T14:02:47.315Z,533
2022-08-27T14:08:14.739Z,533
2022-08-27T14:13:33.477Z,526
2022-08-27T14:18:59.783Z,526
2022-08-27T14:24:18.612Z,530
2022-08-27T14:29:36.536Z,530
2022-08-27T14:34:55.300Z,532
2022-08-27T14:40:13.584Z,528
2022-08-27T14:45:31.978Z,528
2022-08-27T14:50:50.475Z,529
2022-08-27T14:56:08.928Z,526
2022-08-27T15:01:27.752Z,529
2022-08-27T15:06:46.094Z,526
2022-08-27T15:12:10.844Z,529
2022-08-27T15:17:44.508Z,526
2022-08-27T15:23:02.427Z,527
2022-08-27T15:28:20.638Z,526
2022-08-27T15:33:38.843Z,526
2022-08-27T15:39:00.650Z,524
2022-08-27T15:44:19.397Z,516
2022-08-27T15:49:38.156Z,517
2022-08-27T15:54:56.646Z,515
2022-08-27T16:00:14.847Z,517
2022-08-27T16:05:33.357Z,516
2022-08-27T16:10:51.818Z,514
2022-08-27T16:16:10.087Z,515
2022-08-27T16:21:28.832Z,514
2022-08-27T16:26:47.316Z,519
2022-08-27T16:32:06.094Z,517
2022-08-27T16:37:26.644Z,514
2022-08-27T16:42:45.387Z,515
2022-08-27T16:48:04.146Z,513
2022-08-27T16:53:22.667Z,512
2022-08-27T16:58:41.423Z,530
2022-08-27T17:04:11.170Z,552
2022-08-27T17:09:49.041Z,582
2022-08-27T17:15:07.821Z,581
2022-08-27T17:20:26.554Z,501
2022-08-27T17:25:49.468Z,431
2022-08-27T17:31:08.206Z,401
2022-08-27T17:36:26.878Z,400
2022-08-27T17:41:45.664Z,394
2022-08-27T17:47:04.467Z,395
2022-08-27T17:52:22.889Z,421
2022-08-27T17:57:41.616Z,439
2022-08-27T18:03:00.099Z,438
2022-08-27T18:08:20.632Z,438
2022-08-27T18:13:42.703Z,472
2022-08-27T18:19:01.123Z,473
2022-08-27T18:24:25.489Z,468
2022-08-27T18:29:44.245Z,452
2022-08-27T18:35:12.576Z,440
2022-08-27T18:40:31.153Z,420
2022-08-27T18:45:49.269Z,434
2022-08-27T18:51:07.541Z,437
2022-08-27T18:56:25.996Z,463
2022-08-27T19:01:44.625Z,514
2022-08-27T19:07:03.440Z,522
2022-08-27T19:12:22.192Z,529
2022-08-27T19:17:40.956Z,493
2022-08-27T19:22:59.164Z,472
2022-08-27T19:28:17.621Z,469
2022-08-27T19:33:36.133Z,476
2022-08-27T19:38:54.892Z,485
2022-08-27T19:44:13.342Z,493
2022-08-27T19:49:32.189Z,461
2022-08-27T19:55:12.421Z,453
2022-08-27T20:00:32.932Z,451
2022-08-27T20:05:51.134Z,441
2022-08-27T20:11:09.336Z,452
2022-08-27T20:16:27.636Z,440
2022-08-27T20:21:47.203Z,433
2022-08-27T20:27:05.962Z,422
2022-08-27T20:32:29.310Z,415
2022-08-27T20:37:47.975Z,417
2022-08-27T20:43:06.456Z,423
2022-08-27T20:48:24.641Z,458
2022-08-27T20:53:43.379Z,527
2022-08-27T20:59:01.925Z,585
2022-08-27T21:04:19.839Z,629
2022-08-27T21:09:39.834Z,670
2022-08-27T21:15:15.941Z,692
2022-08-27T21:20:34.410Z,717
2022-08-27T21:25:52.915Z,707
2022-08-27T21:31:11.097Z,702
2022-08-27T21:36:29.733Z,693
2022-08-27T21:41:48.508Z,677
2022-08-27T21:47:06.534Z,693
2022-08-27T21:52:25.393Z,708
2022-08-27T21:57:43.878Z,706
2022-08-27T22:03:02.480Z,676
2022-08-27T22:08:20.839Z,653
2022-08-27T22:13:39.051Z,633
2022-08-27T22:18:57.812Z,605
2022-08-27T22:24:16.570Z,624
2022-08-27T22:29:35.060Z,612
2022-08-27T22:34:53.554Z,610
2022-08-27T22:40:19.600Z,616
2022-08-27T22:45:38.718Z,598
2022-08-27T22:50:57.211Z,576
2022-08-27T22:56:15.693Z,547
2022-08-27T23:01:34.452Z,533
2022-08-27T23:06:52.946Z,525
2022-08-27T23:12:11.135Z,520
2022-08-27T23:17:29.337Z,526
2022-08-27T23:22:48.104Z,520
2022-08-27T23:28:11.244Z,516
2022-08-27T23:33:33.537Z,515
2022-08-27T23:38:51.773Z,513
2022-08-27T23:44:10.236Z,511
2022-08-27T23:49:29.042Z,523
2022-08-27T23:54:47.230Z,521
